Time;durP1;ratioP1;P1;durP2;ratioP2;P2;SDS_P1;SDS_P2;PMS_P1;PMS_P2;Temp;Humidity;BMP_temperature;BMP_pressure;BME280_temperature;BME280_humidity;BME280_pressure;Samples;Min_cycle;Max_cycle;Signal;HPM_P1;HPM_P2
2023/08/03 00:00:38;;;;;;;7.05;1.70;;;16.10;99.90;;;;;;5133085;27;20110;-81
2023/08/03 00:03:05;;;;;;;7.63;1.83;;;16.10;99.90;;;;;;5122283;27;20112;-81
2023/08/03 00:05:31;;;;;;;16.45;2.00;;;16.10;99.90;;;;;;5115595;27;20035;-81
2023/08/03 00:07:56;;;;;;;11.07;2.00;;;16.20;99.90;;;;;;5132216;27;20042;-81
2023/08/03 00:10:22;;;;;;;5.05;1.17;;;16.20;99.90;;;;;;5133725;27;20106;-81
2023/08/03 00:12:50;;;;;;;4.93;1.42;;;16.20;99.90;;;;;;5106726;27;20303;-82
2023/08/03 00:15:16;;;;;;;5.50;1.60;;;16.20;99.90;;;;;;5116156;27;20081;-82
2023/08/03 00:17:42;;;;;;;4.82;1.60;;;16.20;99.90;;;;;;5133824;27;20039;-82
2023/08/03 00:20:09;;;;;;;7.15;1.38;;;16.30;99.90;;;;;;5121715;27;20560;-82
2023/08/03 00:22:35;;;;;;;11.55;1.77;;;16.30;99.90;;;;;;5138260;27;20043;-81
2023/08/03 00:25:01;;;;;;;5.82;1.30;;;16.30;99.90;;;;;;5132359;27;20154;-81
2023/08/03 00:27:28;;;;;;;4.50;1.40;;;16.30;99.90;;;;;;5116115;27;20050;-82
2023/08/03 00:29:54;;;;;;;6.95;1.30;;;16.30;99.90;;;;;;5118939;27;20035;-81
2023/08/03 00:32:20;;;;;;;3.63;1.30;;;16.20;99.90;;;;;;5126514;27;20133;-81
2023/08/03 00:34:46;;;;;;;5.93;1.55;;;16.20;99.90;;;;;;5115968;27;20131;-81
2023/08/03 00:37:12;;;;;;;6.03;1.50;;;16.20;99.90;;;;;;5124733;27;20363;-81
2023/08/03 00:39:38;;;;;;;7.20;1.58;;;16.20;99.90;;;;;;5124130;27;20091;-81
2023/08/03 00:42:05;;;;;;;7.00;1.80;;;16.30;99.90;;;;;;5137027;27;20043;-82
2023/08/03 00:44:31;;;;;;;5.32;1.50;;;16.20;99.90;;;;;;5118110;27;20087;-81
2023/08/03 00:46:56;;;;;;;3.42;1.38;;;16.20;99.90;;;;;;5131981;27;20073;-82
2023/08/03 00:49:27;;;;;;;11.68;2.03;;;16.20;99.90;;;;;;5134186;27;20450;-81
2023/08/03 00:51:54;;;;;;;7.30;1.70;;;16.20;99.90;;;;;;5120689;27;20092;-81
2023/08/03 00:54:20;;;;;;;5.30;1.65;;;16.20;99.90;;;;;;5137729;27;20530;-81
2023/08/03 00:56:46;;;;;;;4.78;1.52;;;16.20;99.90;;;;;;5130775;27;20039;-81
2023/08/03 00:59:11;;;;;;;6.55;1.90;;;16.20;99.90;;;;;;5115178;27;20039;-81
2023/08/03 01:01:38;;;;;;;4.95;1.55;;;16.20;99.90;;;;;;5113013;27;20609;-81
2023/08/03 01:04:04;;;;;;;6.22;1.70;;;16.20;99.90;;;;;;5130758;27;20043;-81
2023/08/03 01:06:29;;;;;;;6.40;1.70;;;16.30;99.90;;;;;;5131519;27;20032;-81
2023/08/03 01:08:57;;;;;;;7.07;1.42;;;16.30;99.90;;;;;;5113481;27;20209;-81
2023/08/03 01:11:23;;;;;;;3.55;1.52;;;16.20;99.90;;;;;;5134190;27;20031;-81
2023/08/03 01:13:49;;;;;;;6.03;1.38;;;16.30;99.90;;;;;;5136371;27;20032;-81
2023/08/03 01:16:15;;;;;;;5.75;1.80;;;16.30;99.90;;;;;;5131778;27;20415;-81
2023/08/03 01:18:42;;;;;;;6.25;1.67;;;16.30;99.90;;;;;;5132258;27;20417;-81
2023/08/03 01:21:09;;;;;;;4.97;1.50;;;16.30;99.90;;;;;;5114667;27;20062;-81
2023/08/03 01:23:34;;;;;;;4.75;1.10;;;16.30;99.90;;;;;;5127227;27;20039;-82
2023/08/03 01:26:00;;;;;;;6.45;1.80;;;16.30;99.90;;;;;;5103517;27;20495;-81
2023/08/03 01:28:26;;;;;;;6.20;1.25;;;16.30;99.90;;;;;;5114225;27;20073;-81
2023/08/03 01:30:51;;;;;;;8.48;1.48;;;16.30;99.90;;;;;;5131264;27;20034;-81
2023/08/03 01:33:17;;;;;;;6.28;1.27;;;16.20;99.90;;;;;;5130556;27;20043;-81
2023/08/03 01:35:44;;;;;;;8.38;1.40;;;16.20;99.90;;;;;;5134645;27;20584;-81
2023/08/03 01:38:13;;;;;;;5.70;1.48;;;16.20;99.90;;;;;;5113229;27;20031;-81
2023/08/03 01:40:39;;;;;;;15.73;1.65;;;16.30;99.90;;;;;;5112759;27;20160;-81
2023/08/03 01:43:05;;;;;;;4.05;1.02;;;16.30;99.90;;;;;;5131092;27;20035;-81
2023/08/03 01:45:31;;;;;;;4.72;1.02;;;16.30;99.90;;;;;;5131212;27;20619;-81
2023/08/03 01:47:57;;;;;;;5.35;1.13;;;16.20;99.90;;;;;;5132211;27;20050;-81
2023/08/03 01:50:22;;;;;;;3.65;0.77;;;16.20;99.90;;;;;;5131192;27;20401;-81
2023/08/03 01:52:48;;;;;;;6.03;1.05;;;16.20;99.90;;;;;;5113943;27;20128;-81
2023/08/03 01:55:14;;;;;;;2.20;0.55;;;16.20;99.90;;;;;;5130879;27;20031;-81
2023/08/03 01:57:40;;;;;;;2.95;0.75;;;16.20;99.90;;;;;;5134067;27;20039;-82
2023/08/03 02:00:06;;;;;;;2.60;0.80;;;16.20;99.90;;;;;;5095485;27;20076;-82
2023/08/03 02:02:32;;;;;;;2.03;0.68;;;16.20;99.90;;;;;;5095572;27;20053;-81
2023/08/03 02:04:57;;;;;;;3.47;0.70;;;16.30;99.90;;;;;;5112784;27;20039;-81
2023/08/03 02:07:55;;;;;;;4.18;0.88;;;16.30;99.90;;;;;;5105554;27;20076;-82
2023/08/03 02:10:23;;;;;;;3.05;0.70;;;16.30;99.90;;;;;;5111806;27;20078;-81
2023/08/03 02:12:48;;;;;;;1.83;0.60;;;16.30;99.90;;;;;;5112652;27;20043;-82
2023/08/03 02:15:14;;;;;;;2.03;0.90;;;16.30;99.90;;;;;;5111525;27;20031;-82
2023/08/03 02:17:43;;;;;;;2.45;0.70;;;16.20;99.90;;;;;;5121583;27;20034;-81
2023/08/03 02:20:10;;;;;;;2.17;0.80;;;16.20;99.90;;;;;;5127423;27;20030;-81
2023/08/03 02:22:36;;;;;;;2.38;0.88;;;16.20;99.90;;;;;;5116400;27;20452;-81
2023/08/03 02:25:02;;;;;;;3.35;0.98;;;16.20;99.90;;;;;;5129791;27;20031;-81
2023/08/03 02:27:28;;;;;;;3.10;0.70;;;16.30;99.90;;;;;;5140072;27;20053;-81
2023/08/03 02:29:53;;;;;;;1.77;1.00;;;16.30;99.90;;;;;;5126038;27;20027;-81
2023/08/03 02:32:22;;;;;;;3.45;0.75;;;16.30;99.90;;;;;;5129692;27;20492;-81
2023/08/03 02:34:48;;;;;;;2.05;1.00;;;16.30;99.90;;;;;;5130091;27;20057;-81
2023/08/03 02:37:13;;;;;;;1.65;0.93;;;16.30;99.90;;;;;;5115087;27;20461;-81
2023/08/03 02:39:39;;;;;;;1.85;0.80;;;16.30;99.90;;;;;;5111876;27;20076;-81
2023/08/03 02:42:05;;;;;;;3.20;1.05;;;16.30;99.90;;;;;;5130367;27;20127;-81
2023/08/03 02:44:31;;;;;;;2.38;0.90;;;16.40;99.90;;;;;;5111359;27;20035;-81
2023/08/03 02:46:57;;;;;;;1.98;0.90;;;16.30;99.90;;;;;;5113517;28;20362;-81
2023/08/03 02:49:23;;;;;;;3.67;1.10;;;16.40;99.90;;;;;;5130149;27;20096;-81
2023/08/03 02:51:48;;;;;;;2.20;0.80;;;16.40;99.90;;;;;;5111942;28;20381;-81
2023/08/03 02:54:14;;;;;;;4.10;1.20;;;16.40;99.90;;;;;;5112280;27;20039;-81
2023/08/03 02:56:39;;;;;;;5.20;1.27;;;16.40;99.90;;;;;;5112942;27;20031;-81
2023/08/03 02:59:05;;;;;;;5.15;1.60;;;16.30;99.90;;;;;;5136084;27;20092;-81
2023/08/03 03:01:31;;;;;;;3.75;1.40;;;16.40;99.90;;;;;;5094197;27;20058;-81
2023/08/03 03:03:56;;;;;;;6.13;1.50;;;16.40;99.90;;;;;;5115726;27;20072;-81
2023/08/03 03:06:22;;;;;;;2.97;1.65;;;16.40;99.90;;;;;;5134558;27;20072;-81
2023/08/03 03:08:47;;;;;;;3.95;1.60;;;16.30;99.90;;;;;;5094218;28;20046;-81
2023/08/03 03:11:13;;;;;;;3.80;1.50;;;16.30;99.90;;;;;;5129603;27;20043;-81
2023/08/03 03:13:39;;;;;;;5.13;1.50;;;16.30;99.90;;;;;;5125069;27;20144;-81
2023/08/03 03:16:07;;;;;;;1.98;1.05;;;16.30;99.90;;;;;;5131890;27;20035;-81
2023/08/03 03:18:33;;;;;;;2.08;0.90;;;16.30;99.90;;;;;;5132649;27;20038;-82
2023/08/03 03:20:58;;;;;;;4.93;1.55;;;16.30;99.90;;;;;;5133338;27;20031;-81
2023/08/03 03:23:24;;;;;;;3.50;1.70;;;16.30;99.90;;;;;;5134067;27;20039;-81
2023/08/03 03:25:50;;;;;;;3.15;1.55;;;16.40;99.90;;;;;;5135174;27;20037;-81
2023/08/03 03:28:15;;;;;;;4.18;2.40;;;16.40;99.90;;;;;;5137869;27;20042;-81
2023/08/03 03:30:41;;;;;;;4.82;2.90;;;16.40;99.90;;;;;;5133389;27;20416;-81
2023/08/03 03:33:06;;;;;;;5.40;2.70;;;16.40;99.90;;;;;;5114737;27;20164;-81
2023/08/03 03:35:32;;;;;;;4.90;3.20;;;16.30;99.90;;;;;;5119545;27;20043;-81
2023/08/03 03:37:57;;;;;;;4.97;3.45;;;16.30;99.90;;;;;;5135156;27;20581;-81
2023/08/03 03:40:23;;;;;;;5.65;3.33;;;16.30;99.90;;;;;;5115657;27;20039;-81
2023/08/03 03:42:49;;;;;;;7.88;4.30;;;16.30;99.90;;;;;;5116721;27;20136;-81
2023/08/03 03:45:14;;;;;;;6.40;4.47;;;16.30;99.90;;;;;;5140481;27;20041;-81
2023/08/03 03:47:40;;;;;;;4.65;2.72;;;16.30;99.90;;;;;;5115754;27;20035;-81
2023/08/03 03:50:06;;;;;;;6.88;3.38;;;16.30;99.90;;;;;;5132937;27;20049;-81
2023/08/03 03:52:32;;;;;;;5.53;3.03;;;16.30;99.90;;;;;;5133127;27;20039;-81
2023/08/03 03:54:57;;;;;;;4.88;2.90;;;16.40;99.90;;;;;;5139905;27;20042;-81
2023/08/03 03:57:23;;;;;;;6.68;3.90;;;16.30;99.90;;;;;;5115434;27;20474;-81
2023/08/03 03:59:48;;;;;;;5.30;3.45;;;16.30;99.90;;;;;;5097492;27;20134;-81
2023/08/03 04:02:14;;;;;;;6.18;3.20;;;16.30;99.90;;;;;;5097320;28;20044;-81
2023/08/03 04:04:40;;;;;;;7.10;3.88;;;16.40;99.90;;;;;;5111682;27;20100;-82
2023/08/03 04:07:05;;;;;;;9.18;4.63;;;16.40;99.90;;;;;;5106614;28;20035;-81
2023/08/03 04:09:31;;;;;;;7.07;4.85;;;16.40;99.90;;;;;;5112974;27;20052;-81
2023/08/03 04:11:56;;;;;;;9.38;6.30;;;16.40;99.90;;;;;;5125684;27;20047;-81
2023/08/03 04:14:22;;;;;;;11.90;7.45;;;16.30;99.90;;;;;;5111718;27;20071;-81
2023/08/03 04:16:48;;;;;;;10.35;6.70;;;16.40;99.90;;;;;;5110995;27;20039;-81
2023/08/03 04:19:13;;;;;;;13.80;7.13;;;16.40;99.90;;;;;;5115170;27;20038;-82
2023/08/03 04:21:40;;;;;;;16.15;8.32;;;16.40;99.90;;;;;;5112304;27;20085;-81
2023/08/03 04:24:06;;;;;;;12.02;7.65;;;16.30;99.90;;;;;;5121316;27;20397;-81
2023/08/03 04:26:31;;;;;;;15.13;7.38;;;16.30;99.90;;;;;;5111918;27;20118;-81
2023/08/03 04:28:57;;;;;;;13.13;6.07;;;16.30;99.90;;;;;;5114185;27;20461;-81
2023/08/03 04:31:22;;;;;;;12.50;6.93;;;16.30;99.90;;;;;;5105932;27;20043;-81
2023/08/03 04:33:48;;;;;;;10.90;6.00;;;16.30;99.90;;;;;;5111335;27;20036;-81
2023/08/03 04:36:14;;;;;;;12.23;7.00;;;16.30;99.90;;;;;;5111540;28;20039;-81
2023/08/03 04:38:39;;;;;;;10.35;6.78;;;16.30;99.90;;;;;;5114105;27;20035;-81
2023/08/03 04:41:05;;;;;;;13.13;7.97;;;16.30;99.90;;;;;;5109969;27;20494;-81
2023/08/03 04:43:30;;;;;;;13.75;6.05;;;16.20;99.90;;;;;;5122185;27;20402;-81
2023/08/03 04:45:56;;;;;;;9.70;6.30;;;16.30;99.90;;;;;;5111737;27;20115;-81
2023/08/03 04:48:22;;;;;;;15.30;7.72;;;16.30;99.90;;;;;;5110200;27;20039;-81
2023/08/03 04:50:47;;;;;;;12.10;5.85;;;16.40;99.90;;;;;;5102473;27;20071;-81
2023/08/03 04:53:13;;;;;;;12.38;5.93;;;16.40;99.90;;;;;;5111239;27;20035;-81
2023/08/03 04:55:40;;;;;;;10.93;5.00;;;16.40;99.90;;;;;;5113512;27;20384;-81
2023/08/03 04:58:05;;;;;;;14.63;5.32;;;16.40;99.90;;;;;;5116537;27;20055;-81
2023/08/03 05:00:31;;;;;;;13.55;4.25;;;16.40;99.90;;;;;;5112535;27;20035;-81
2023/08/03 05:02:57;;;;;;;19.67;6.65;;;16.40;99.90;;;;;;5124082;27;20047;-81
2023/08/03 05:05:22;;;;;;;12.65;4.55;;;16.40;99.90;;;;;;5110781;27;20036;-81
2023/08/03 05:07:48;;;;;;;8.57;4.13;;;16.50;99.90;;;;;;5113748;27;20126;-81
2023/08/03 05:10:13;;;;;;;11.90;4.30;;;16.40;99.90;;;;;;5110875;27;20119;-81
2023/08/03 05:12:41;;;;;;;9.30;3.72;;;16.40;99.90;;;;;;5110357;27;20330;-81
2023/08/03 05:15:08;;;;;;;8.85;3.70;;;16.40;99.90;;;;;;5126847;27;20043;-81
2023/08/03 05:17:34;;;;;;;6.60;2.40;;;16.40;99.90;;;;;;5112805;27;20031;-81
2023/08/03 05:19:59;;;;;;;6.82;2.95;;;16.50;99.90;;;;;;5114091;27;20032;-81
2023/08/03 05:22:25;;;;;;;8.40;3.00;;;16.40;99.90;;;;;;5110125;27;20074;-81
2023/08/03 05:24:50;;;;;;;5.15;2.20;;;16.50;99.90;;;;;;5110602;27;20037;-81
2023/08/03 05:27:16;;;;;;;5.95;2.15;;;16.40;99.90;;;;;;5121507;27;20442;-82
2023/08/03 05:29:43;;;;;;;6.10;2.10;;;16.40;99.90;;;;;;5110883;27;20063;-82
2023/08/03 05:32:09;;;;;;;9.57;2.85;;;16.40;99.90;;;;;;5093039;27;20669;-81
2023/08/03 05:34:34;;;;;;;9.57;3.88;;;16.40;99.90;;;;;;5091094;28;20130;-81
2023/08/03 05:37:00;;;;;;;8.38;3.30;;;16.40;99.90;;;;;;5113732;27;20023;-81
2023/08/03 05:39:26;;;;;;;9.55;4.07;;;16.40;99.90;;;;;;5107754;27;20035;-81
2023/08/03 05:41:52;;;;;;;9.75;3.17;;;16.50;99.90;;;;;;5108097;27;20043;-81
2023/08/03 05:44:18;;;;;;;7.25;2.78;;;16.40;99.90;;;;;;5110693;27;20050;-81
2023/08/03 05:46:44;;;;;;;9.35;3.97;;;16.40;99.90;;;;;;5112896;27;20046;-81
2023/08/03 05:49:11;;;;;;;10.43;3.72;;;16.40;99.90;;;;;;5113668;27;20470;-81
2023/08/03 05:51:39;;;;;;;6.55;2.72;;;16.40;99.90;;;;;;5111897;27;20094;-81
2023/08/03 05:54:05;;;;;;;7.88;3.15;;;16.40;99.90;;;;;;5111742;27;20044;-81
2023/08/03 05:56:34;;;;;;;12.90;3.67;;;16.50;99.90;;;;;;5110173;27;20077;-81
2023/08/03 05:59:02;;;;;;;7.60;3.35;;;16.50;99.90;;;;;;5108524;27;20043;-81
2023/08/03 06:01:28;;;;;;;9.63;4.22;;;16.50;99.90;;;;;;5111478;27;20122;-81
2023/08/03 06:03:54;;;;;;;8.10;3.55;;;16.60;99.90;;;;;;5114558;27;20129;-81
2023/08/03 06:06:21;;;;;;;11.43;4.22;;;16.60;99.90;;;;;;5130684;27;20043;-81
2023/08/03 06:08:56;;;;;;;8.77;3.47;;;16.70;99.90;;;;;;5129956;27;20096;-81
2023/08/03 06:11:21;;;;;;;7.68;3.35;;;16.70;99.90;;;;;;5131363;27;20118;-81
2023/08/03 06:13:48;;;;;;;11.45;3.95;;;16.80;99.90;;;;;;5115150;27;20720;-81
2023/08/03 06:16:15;;;;;;;8.07;4.10;;;16.80;99.90;;;;;;5111707;27;20125;-81
2023/08/03 06:18:49;;;;;;;7.10;3.40;;;16.80;99.90;;;;;;5130314;27;20065;-81
2023/08/03 06:21:15;;;;;;;;;;;16.80;99.90;;;;;;5111864;27;20088;-81
2023/08/03 06:23:45;;;;;;;9.68;3.55;;;16.80;99.90;;;;;;5114263;27;19944;-81
2023/08/03 06:26:13;;;;;;;8.10;3.63;;;16.90;99.90;;;;;;5136124;27;20091;-81
2023/08/03 06:28:38;;;;;;;6.95;3.45;;;16.90;99.90;;;;;;5115573;27;20134;-81
2023/08/03 06:31:14;;;;;;;7.80;3.90;;;17.00;99.90;;;;;;5111476;27;20051;-81
2023/08/03 06:33:40;;;;;;;7.00;3.03;;;17.00;99.90;;;;;;5130549;27;20485;-81
2023/08/03 06:36:09;;;;;;;10.80;4.13;;;17.00;99.90;;;;;;5118278;27;20275;-81
2023/08/03 06:38:36;;;;;;;8.45;3.55;;;17.10;99.90;;;;;;5129803;27;20078;-81
2023/08/03 06:41:02;;;;;;;9.90;3.92;;;17.10;99.90;;;;;;5129760;27;20031;-81
2023/08/03 06:43:28;;;;;;;6.10;3.35;;;17.10;99.90;;;;;;5130967;27;20115;-81
2023/08/03 06:45:54;;;;;;;7.13;3.20;;;17.20;99.90;;;;;;5104538;27;20034;-82
2023/08/03 06:48:20;;;;;;;11.38;3.95;;;17.20;99.90;;;;;;5108505;27;20039;-82
2023/08/03 06:50:45;;;;;;;6.75;3.25;;;17.20;99.90;;;;;;5130096;27;20038;-82
2023/08/03 06:53:12;;;;;;;8.10;3.35;;;17.30;99.90;;;;;;5113453;27;20409;-81
2023/08/03 06:55:38;;;;;;;5.18;2.88;;;17.30;99.90;;;;;;5117615;27;20118;-81
2023/08/03 06:58:04;;;;;;;10.13;4.03;;;17.30;99.90;;;;;;5133950;27;20512;-81
2023/08/03 07:00:29;;;;;;;7.63;3.10;;;17.30;99.90;;;;;;5134359;27;20042;-80
2023/08/03 07:02:55;;;;;;;7.40;3.55;;;17.30;99.90;;;;;;5134975;27;20047;-80
2023/08/03 07:05:21;;;;;;;7.15;2.75;;;17.30;99.90;;;;;;5133038;27;20042;-80
2023/08/03 07:07:47;;;;;;;6.88;2.70;;;17.40;99.90;;;;;;5141758;27;20374;-82
2023/08/03 07:10:12;;;;;;;7.22;2.47;;;17.40;99.90;;;;;;5114872;27;20039;-81
2023/08/03 07:12:38;;;;;;;6.63;1.88;;;17.40;99.90;;;;;;5138688;27;20042;-81
2023/08/03 07:15:05;;;;;;;4.22;2.10;;;17.40;99.90;;;;;;5097192;27;20054;-81
2023/08/03 07:17:31;;;;;;;4.13;1.70;;;17.40;99.90;;;;;;5133396;27;20039;-81
2023/08/03 07:19:57;;;;;;;5.22;2.00;;;17.30;99.90;;;;;;5139458;27;20084;-81
2023/08/03 07:22:24;;;;;;;4.75;2.08;;;17.30;99.90;;;;;;5132801;27;20359;-81
2023/08/03 07:24:49;;;;;;;5.35;2.28;;;17.40;99.90;;;;;;5120600;27;20031;-81
2023/08/03 07:27:15;;;;;;;4.78;1.60;;;17.40;99.90;;;;;;5115713;27;20035;-81
2023/08/03 07:29:42;;;;;;;3.78;2.00;;;17.50;99.90;;;;;;5123496;27;20564;-81
2023/08/03 07:32:08;;;;;;;4.00;1.73;;;17.70;99.90;;;;;;5126182;27;20039;-81
2023/08/03 07:34:34;;;;;;;5.18;2.03;;;17.70;99.90;;;;;;5098330;27;20038;-82
2023/08/03 07:37:00;;;;;;;3.03;1.52;;;17.90;99.90;;;;;;5132690;27;20116;-81
2023/08/03 07:39:26;;;;;;;3.33;1.42;;;17.90;99.90;;;;;;5114700;27;20050;-81
2023/08/03 07:41:51;;;;;;;2.72;1.48;;;17.90;99.90;;;;;;5114964;27;20031;-81
2023/08/03 07:44:17;;;;;;;4.70;1.60;;;18.00;99.90;;;;;;5097570;27;20035;-81
2023/08/03 07:46:44;;;;;;;2.63;1.30;;;18.00;99.90;;;;;;5126437;27;20057;-82
2023/08/03 07:49:10;;;;;;;2.78;1.15;;;18.00;99.90;;;;;;5132677;27;20596;-81
2023/08/03 07:51:36;;;;;;;2.75;1.30;;;18.00;99.90;;;;;;5124045;27;20114;-81
2023/08/03 07:54:02;;;;;;;3.47;1.25;;;18.00;99.90;;;;;;5132629;27;20084;-81
2023/08/03 07:56:28;;;;;;;2.45;1.00;;;18.00;99.90;;;;;;5114641;27;20047;-81
2023/08/03 07:58:54;;;;;;;4.72;1.42;;;18.00;99.90;;;;;;5132745;27;20063;-82
2023/08/03 08:01:20;;;;;;;2.17;1.10;;;18.10;99.90;;;;;;5132449;27;20031;-81
2023/08/03 08:03:46;;;;;;;3.28;1.95;;;18.20;99.90;;;;;;5132866;27;20074;-81
2023/08/03 08:06:16;;;;;;;3.65;1.10;;;18.40;99.90;;;;;;5114065;27;20035;-82
2023/08/03 08:08:42;;;;;;;5.72;1.77;;;18.50;99.90;;;;;;5114601;27;20426;-82
2023/08/03 08:11:09;;;;;;;3.35;1.25;;;18.70;99.90;;;;;;5132431;27;20042;-82
2023/08/03 08:13:35;;;;;;;3.17;1.05;;;18.70;99.90;;;;;;5132614;27;20039;-81
2023/08/03 08:16:05;;;;;;;4.78;1.30;;;18.80;99.90;;;;;;5113545;27;20050;-81
2023/08/03 08:18:31;;;;;;;3.65;1.10;;;18.80;99.90;;;;;;5129933;27;20039;-82
2023/08/03 08:21:02;;;;;;;6.40;1.52;;;18.80;99.90;;;;;;5131566;27;20494;-82
2023/08/03 08:23:28;;;;;;;3.75;0.80;;;18.90;99.90;;;;;;5132296;27;20046;-82
2023/08/03 08:25:53;;;;;;;4.03;0.80;;;18.90;99.90;;;;;;5114075;27;20508;-82
2023/08/03 08:28:19;;;;;;;4.00;0.88;;;19.00;99.90;;;;;;5132558;27;20034;-81
2023/08/03 08:30:46;;;;;;;2.92;0.73;;;19.00;99.90;;;;;;5132114;27;20054;-82
2023/08/03 08:33:15;;;;;;;4.15;1.00;;;19.00;99.90;;;;;;5113402;27;20039;-82
2023/08/03 08:35:41;;;;;;;3.95;0.80;;;19.10;99.90;;;;;;5113395;27;20111;-82
2023/08/03 08:38:09;;;;;;;3.05;0.80;;;19.10;99.90;;;;;;5131520;27;20094;-82
2023/08/03 08:40:40;;;;;;;2.60;0.80;;;19.30;99.90;;;;;;5103475;27;20114;-82
2023/08/03 08:43:07;;;;;;;3.88;0.90;;;19.40;99.90;;;;;;5113504;27;20465;-82
2023/08/03 08:45:33;;;;;;;3.65;0.70;;;19.50;99.90;;;;;;5132214;27;20066;-82
2023/08/03 08:47:59;;;;;;;3.38;0.80;;;19.60;99.90;;;;;;5131081;27;20035;-82
2023/08/03 08:50:25;;;;;;;1.35;0.57;;;19.70;99.90;;;;;;5113572;27;20069;-82
2023/08/03 08:52:52;;;;;;;5.15;0.88;;;19.80;99.90;;;;;;5113838;27;20114;-81
2023/08/03 08:55:30;;;;;;;5.03;0.75;;;19.80;99.90;;;;;;5114027;27;20051;-81
2023/08/03 08:57:57;;;;;;;4.97;0.93;;;19.80;99.90;;;;;;5131459;27;20367;-82
2023/08/03 09:00:25;;;;;;;4.75;0.68;;;19.80;99.90;;;;;;5097382;27;20043;-82
2023/08/03 09:03:01;;;;;;;4.38;0.95;;;19.90;99.90;;;;;;5112925;27;20051;-82
2023/08/03 09:05:28;;;;;;;5.35;0.73;;;20.00;99.90;;;;;;5125804;27;20051;-81
2023/08/03 09:08:08;;;;;;;4.38;0.90;;;20.10;99.90;;;;;;5112734;27;20068;-82
2023/08/03 09:10:55;;;;;;;3.47;0.93;;;20.20;99.90;;;;;;5113926;27;20087;-82
2023/08/03 09:13:29;;;;;;;7.05;0.70;;;20.30;99.90;;;;;;5112958;27;20047;-81
2023/08/03 09:15:55;;;;;;;;;;;20.30;99.90;;;;;;5124871;27;20113;-82
2023/08/03 09:18:22;;;;;;;2.92;0.60;;;20.40;99.90;;;;;;5130103;27;20009;-82
2023/08/03 09:20:48;;;;;;;4.57;0.80;;;20.50;99.90;;;;;;5131555;27;20069;-82
2023/08/03 09:23:30;;;;;;;2.95;0.73;;;20.60;99.90;;;;;;5131157;27;20424;-82
2023/08/03 09:25:56;;;;;;;2.97;0.75;;;20.80;99.90;;;;;;5131045;27;20031;-82
2023/08/03 09:28:37;;;;;;;2.92;0.70;;;20.90;99.90;;;;;;5112822;27;20034;-82
2023/08/03 09:31:04;;;;;;;5.80;0.77;;;21.10;99.90;;;;;;5130679;27;20045;-82
2023/08/03 09:33:31;;;;;;;5.70;1.23;;;21.20;99.90;;;;;;5137619;27;20031;-82
2023/08/03 09:36:07;;;;;;;5.70;0.80;;;21.30;99.90;;;;;;5131308;27;20047;-82
2023/08/03 09:38:33;;;;;;;6.10;0.85;;;21.40;99.90;;;;;;5112836;27;20043;-81
2023/08/03 09:40:59;;;;;;;6.78;0.95;;;21.40;99.90;;;;;;5122085;27;20053;-81
2023/08/03 09:43:26;;;;;;;3.13;0.80;;;21.30;99.90;;;;;;5130948;27;20081;-82
2023/08/03 09:45:53;;;;;;;3.35;1.00;;;21.30;99.90;;;;;;5112406;27;20225;-82
2023/08/03 09:48:19;;;;;;;3.38;0.60;;;21.30;99.90;;;;;;5112261;27;20055;-82
2023/08/03 09:50:56;;;;;;;5.72;1.42;;;21.20;99.90;;;;;;5095983;27;20047;-82
2023/08/03 09:53:29;;;;;;;4.43;0.82;;;21.10;99.90;;;;;;5130708;27;20482;-81
2023/08/03 09:56:00;;;;;;;5.28;0.88;;;21.00;99.90;;;;;;5119769;27;20199;-82
2023/08/03 09:58:58;;;;;;;4.90;0.90;;;21.00;99.90;;;;;;5096305;27;20122;-82
2023/08/03 10:01:26;;;;;;;4.68;0.93;;;20.90;99.90;;;;;;5133141;27;20046;-82
2023/08/03 10:03:58;;;;;;;5.28;0.90;;;20.90;99.90;;;;;;5112442;27;20047;-82
2023/08/03 10:06:26;;;;;;;3.55;0.88;;;20.80;99.90;;;;;;5130423;27;20524;-82
2023/08/03 10:09:01;;;;;;;4.95;0.80;;;20.80;99.90;;;;;;5130449;27;20122;-82
2023/08/03 10:11:29;;;;;;;;;;;20.70;99.90;;;;;;5097147;27;20114;-82
2023/08/03 10:13:58;;;;;;;5.90;0.90;;;20.60;99.90;;;;;;5130144;27;20018;-82
2023/08/03 10:16:24;;;;;;;6.03;1.00;;;20.50;99.90;;;;;;5129854;27;20043;-82
2023/08/03 10:18:51;;;;;;;2.83;0.85;;;20.60;99.90;;;;;;5130563;27;20041;-82
2023/08/03 10:21:17;;;;;;;4.40;1.15;;;20.80;99.90;;;;;;5094354;27;20076;-82
2023/08/03 10:24:09;;;;;;;4.93;1.20;;;21.00;99.90;;;;;;5095431;27;20031;-82
2023/08/03 10:26:35;;;;;;;3.67;1.00;;;21.20;99.90;;;;;;5137411;27;20520;-82
2023/08/03 10:29:00;;;;;;;6.85;0.82;;;21.40;99.90;;;;;;5117459;27;20276;-82
2023/08/03 10:31:26;;;;;;;3.90;0.90;;;21.50;99.90;;;;;;5129192;27;20039;-82
2023/08/03 10:33:52;;;;;;;6.50;1.10;;;21.70;99.90;;;;;;5112404;27;20058;-82
2023/08/03 10:36:30;;;;;;;6.95;1.20;;;21.90;99.90;;;;;;5111595;27;20074;-82
2023/08/03 10:38:59;;;;;;;4.20;1.15;;;22.00;99.90;;;;;;5111058;27;20035;-82
2023/08/03 10:41:27;;;;;;;3.08;1.05;;;22.00;99.90;;;;;;5111707;27;20039;-82
2023/08/03 10:44:05;;;;;;;5.03;1.08;;;22.00;99.90;;;;;;5111032;27;20027;-82
2023/08/03 10:46:31;;;;;;;8.10;1.10;;;22.20;99.90;;;;;;5109353;28;20110;-82
2023/08/03 10:48:56;;;;;;;7.40;1.20;;;22.30;99.90;;;;;;5129464;27;20039;-82
2023/08/03 10:51:25;;;;;;;5.00;0.82;;;22.50;99.90;;;;;;5111537;28;20028;-82
2023/08/03 10:53:51;;;;;;;4.05;0.75;;;22.50;99.90;;;;;;5111307;28;20474;-81
2023/08/03 10:56:17;;;;;;;5.30;1.25;;;22.40;99.90;;;;;;5111177;28;20121;-82
2023/08/03 10:58:50;;;;;;;5.60;1.20;;;22.30;99.90;;;;;;5110969;27;20584;-82
2023/08/03 11:01:23;;;;;;;4.45;1.00;;;22.30;99.90;;;;;;5111664;27;20126;-82
2023/08/03 11:03:49;;;;;;;4.13;1.02;;;22.50;99.90;;;;;;5111897;27;20043;-82
2023/08/03 11:06:17;;;;;;;5.18;1.33;;;22.60;99.90;;;;;;5095725;27;20084;-82
2023/08/03 11:08:44;;;;;;;4.10;0.85;;;22.80;99.90;;;;;;5133917;27;20066;-82
2023/08/03 11:11:16;;;;;;;3.33;0.80;;;23.10;99.90;;;;;;5129092;27;20083;-82
2023/08/03 11:13:45;;;;;;;5.70;1.15;;;23.20;99.90;;;;;;5110746;28;20485;-82
2023/08/03 11:16:15;;;;;;;5.22;0.90;;;23.20;99.90;;;;;;5112698;27;20046;-82
2023/08/03 11:18:48;;;;;;;2.85;0.70;;;23.10;99.90;;;;;;5110889;27;20042;-81
2023/08/03 11:21:14;;;;;;;4.15;0.80;;;22.90;99.90;;;;;;5110630;28;20047;-81
2023/08/03 11:23:40;;;;;;;4.93;1.13;;;22.70;99.90;;;;;;5112320;28;20048;-82
2023/08/03 11:26:10;;;;;;;3.22;0.85;;;22.50;99.90;;;;;;5129631;27;20421;-81
2023/08/03 11:28:41;;;;;;;4.55;0.90;;;22.40;99.90;;;;;;5104666;27;20108;-81
2023/08/03 11:31:17;;;;;;;4.15;0.88;;;22.50;99.90;;;;;;5122642;27;20084;-81
2023/08/03 11:33:49;;;;;;;4.43;0.80;;;22.60;99.90;;;;;;5115695;27;20039;-82
2023/08/03 11:36:17;;;;;;;5.20;0.90;;;22.90;99.90;;;;;;5129369;27;20092;-82
2023/08/03 11:38:44;;;;;;;4.88;1.00;;;23.10;99.90;;;;;;5129551;27;20088;-81
2023/08/03 11:41:14;;;;;;;2.63;0.68;;;23.20;99.90;;;;;;5112800;27;20095;-81
2023/08/03 11:43:40;;;;;;;3.85;0.80;;;23.10;99.90;;;;;;5115836;27;20031;-81
2023/08/03 11:46:06;;;;;;;3.25;0.70;;;23.00;99.90;;;;;;5115038;27;20443;-81
2023/08/03 11:48:32;;;;;;;2.85;0.80;;;22.90;99.90;;;;;;5119096;27;20118;-82
2023/08/03 11:51:04;;;;;;;3.42;0.60;;;22.80;99.90;;;;;;5117830;27;20496;-81
2023/08/03 11:53:30;;;;;;;3.22;0.70;;;22.70;99.90;;;;;;5133061;27;20043;-82
2023/08/03 11:55:59;;;;;;;5.80;1.10;;;22.60;99.90;;;;;;5097175;27;20043;-82
2023/08/03 11:58:27;;;;;;;4.10;0.68;;;22.40;99.90;;;;;;5132566;27;20074;-82
2023/08/03 12:00:59;;;;;;;3.55;0.80;;;22.30;99.90;;;;;;5132722;27;20545;-82
2023/08/03 12:03:36;;;;;;;4.65;0.80;;;22.20;99.90;;;;;;5132590;27;20039;-82
2023/08/03 12:06:11;;;;;;;5.65;0.80;;;22.30;99.90;;;;;;5113991;27;20039;-82
2023/08/03 12:08:44;;;;;;;2.65;0.52;;;22.50;99.90;;;;;;5097319;27;20038;-82
2023/08/03 12:11:10;;;;;;;2.38;0.60;;;22.50;99.90;;;;;;5114481;27;20070;-81
2023/08/03 12:13:36;;;;;;;3.83;0.70;;;22.50;99.90;;;;;;5132783;27;20579;-82
2023/08/03 12:16:02;;;;;;;2.88;0.68;;;22.40;99.90;;;;;;5132715;27;20035;-81
2023/08/03 12:18:28;;;;;;;4.38;0.90;;;22.40;99.90;;;;;;5132701;27;20031;-81
2023/08/03 12:20:54;;;;;;;2.53;0.70;;;22.40;99.90;;;;;;5132039;27;20470;-81
2023/08/03 12:23:20;;;;;;;3.65;0.70;;;22.60;99.90;;;;;;5132629;27;20038;-81
2023/08/03 12:25:46;;;;;;;4.10;0.60;;;22.80;99.90;;;;;;5126392;27;20086;-81
2023/08/03 12:28:12;;;;;;;5.22;0.60;;;22.90;99.90;;;;;;5131969;27;20485;-81
2023/08/03 12:30:38;;;;;;;2.63;0.50;;;23.00;99.90;;;;;;5132249;27;20089;-81
2023/08/03 12:33:06;;;;;;;3.72;0.63;;;23.00;99.90;;;;;;5113427;27;20039;-82
2023/08/03 12:35:32;;;;;;;7.20;0.80;;;23.10;99.90;;;;;;5115409;27;20373;-81
2023/08/03 12:37:58;;;;;;;3.65;0.70;;;23.20;99.90;;;;;;5113984;27;20039;-81
2023/08/03 12:40:24;;;;;;;4.22;0.82;;;23.30;99.90;;;;;;5131718;27;20172;-81
2023/08/03 12:42:50;;;;;;;4.30;0.80;;;23.50;99.90;;;;;;5113387;27;20479;-81
2023/08/03 12:45:15;;;;;;;3.38;0.90;;;23.50;99.90;;;;;;5113627;27;20035;-81